Sun City Center, Florida
Current Conditions -  °F | °C
As of 2:58 AM on Thursday 18 Dec 2014 (Local Time) from KMCF Reporting Station
Clear Clear  
Wind Chill: 46°   Ceiling: Unl
Heat Index: 46°   Visibility: 10mi
Dew Point: 45°   Wind: 2mph
Humidity: 95%   Direction: 340°NNW
Pressure: 30.15"   Gusts: NA
Location:  27.72°N, 82.35°W
Report Text: KMCF 180758Z AUTO 34002KT 10SM CLR 08/07 A3015 RMK AO2 SLP213 T00800073 $
Loading
Personal Weather Stations






























Interactive Weather Map New forecast layout! Learn more

10-Day Weather Forecast

Advertisements
Track Severe Weather on mobile